createdAt,value
2018-10-09T00:00:26.267Z,30.37
2018-10-09T00:02:55.360Z,24.93
2018-10-09T00:05:24.478Z,22.63
2018-10-09T00:07:53.621Z,24.70
2018-10-09T00:10:23.056Z,34.10
2018-10-09T00:12:52.158Z,32.80
2018-10-09T00:15:21.321Z,23.97
2018-10-09T00:17:50.393Z,26.97
2018-10-09T00:20:25.163Z,31.70
2018-10-09T00:22:58.261Z,33.63
2018-10-09T00:25:27.421Z,26.40
2018-10-09T00:27:56.850Z,27.20
2018-10-09T00:30:26.674Z,25.80
2018-10-09T00:32:55.961Z,31.93
2018-10-09T00:35:25.048Z,24.00
2018-10-09T00:37:54.121Z,30.77
2018-10-09T00:40:23.222Z,25.87
2018-10-09T00:42:52.302Z,21.30
2018-10-09T00:45:21.437Z,28.70
2018-10-09T00:47:50.560Z,28.43
2018-10-09T00:50:19.661Z,27.30
2018-10-09T00:52:48.750Z,32.30
2018-10-09T00:55:17.842Z,27.17
2018-10-09T00:57:46.973Z,25.33
2018-10-09T01:00:16.030Z,24.60
2018-10-09T01:02:45.146Z,29.30
2018-10-09T01:05:14.230Z,30.30
2018-10-09T01:07:43.312Z,30.40
2018-10-09T01:10:12.423Z,20.33
2018-10-09T01:12:41.542Z,22.63
2018-10-09T01:15:10.627Z,28.57
2018-10-09T01:17:39.789Z,23.67
2018-10-09T01:20:08.902Z,26.80
2018-10-09T01:22:37.974Z,31.07
2018-10-09T01:25:07.061Z,30.63
2018-10-09T01:27:36.189Z,25.50
2018-10-09T01:30:05.314Z,33.10
2018-10-09T01:32:34.439Z,23.70
2018-10-09T01:35:03.556Z,21.43
2018-10-09T01:37:32.662Z,27.00
2018-10-09T01:40:01.729Z,26.50
2018-10-09T01:42:30.796Z,26.17
2018-10-09T01:44:59.880Z,29.10
2018-10-09T01:47:29.064Z,28.10
2018-10-09T01:49:58.161Z,25.83
2018-10-09T01:52:27.227Z,23.10
2018-10-09T01:54:56.305Z,23.17
2018-10-09T01:57:25.388Z,25.50
2018-10-09T01:59:54.472Z,30.87
2018-10-09T02:02:23.629Z,30.10
2018-10-09T02:04:52.749Z,28.00
2018-10-09T02:07:21.889Z,29.63
2018-10-09T02:09:50.971Z,25.80
2018-10-09T02:12:20.076Z,30.07
2018-10-09T02:14:49.178Z,22.73
2018-10-09T02:17:18.308Z,23.47
2018-10-09T02:19:47.401Z,23.37
2018-10-09T02:22:16.492Z,21.67
2018-10-09T02:24:45.597Z,21.47
2018-10-09T02:27:14.690Z,24.80
2018-10-09T02:29:43.789Z,21.63
2018-10-09T02:32:12.922Z,21.90
2018-10-09T02:34:41.992Z,19.53
2018-10-09T02:37:11.138Z,26.50
2018-10-09T02:39:40.250Z,26.83
2018-10-09T02:42:09.342Z,22.57
2018-10-09T02:44:38.441Z,25.90
2018-10-09T02:47:07.913Z,25.97
2018-10-09T02:49:37.057Z,23.67
2018-10-09T02:52:07.358Z,27.30
2018-10-09T02:54:36.448Z,18.83
2018-10-09T02:57:05.626Z,18.70
2018-10-09T02:59:34.784Z,24.80
2018-10-09T03:02:03.868Z,19.90
2018-10-09T03:04:33.043Z,20.40
2018-10-09T03:07:02.160Z,20.43
2018-10-09T03:09:31.254Z,16.73
2018-10-09T03:12:00.333Z,18.93
2018-10-09T03:14:29.427Z,19.40
2018-10-09T03:16:58.513Z,18.97
2018-10-09T03:19:27.609Z,17.80
2018-10-09T03:21:56.736Z,20.10
2018-10-09T03:24:25.848Z,17.20
2018-10-09T03:26:54.977Z,19.73
2018-10-09T03:29:24.089Z,18.93
2018-10-09T03:31:53.197Z,20.90
2018-10-09T03:34:22.280Z,18.33
2018-10-09T03:36:51.349Z,27.67
2018-10-09T03:39:20.404Z,25.10
2018-10-09T03:41:49.530Z,22.80
2018-10-09T03:44:18.620Z,19.40
2018-10-09T03:46:47.718Z,21.33
2018-10-09T03:49:16.837Z,29.53
2018-10-09T03:51:46.176Z,22.70
2018-10-09T03:54:15.346Z,21.43
2018-10-09T03:56:44.400Z,20.93
2018-10-09T03:59:13.565Z,18.43
2018-10-09T04:01:42.736Z,17.90
2018-10-09T04:04:11.830Z,26.77
2018-10-09T04:06:40.928Z,17.97
2018-10-09T04:09:12.675Z,20.47
2018-10-09T04:11:41.901Z,19.83
2018-10-09T04:14:10.990Z,25.53
2018-10-09T04:16:40.106Z,17.23
2018-10-09T04:19:09.617Z,17.80
2018-10-09T04:21:38.742Z,19.57
2018-10-09T04:24:07.889Z,25.13
2018-10-09T04:26:36.989Z,19.13
2018-10-09T04:29:06.076Z,20.80
2018-10-09T04:31:35.159Z,25.10
2018-10-09T04:34:04.280Z,19.80
2018-10-09T04:36:33.349Z,19.47
2018-10-09T04:39:02.451Z,17.60
2018-10-09T04:41:33.541Z,23.60
2018-10-09T04:44:02.876Z,16.80
2018-10-09T04:46:32.043Z,29.90
2018-10-09T04:49:01.167Z,22.27
2018-10-09T04:51:30.314Z,24.97
2018-10-09T04:53:59.533Z,24.53
2018-10-09T04:56:28.667Z,27.00
2018-10-09T04:58:57.802Z,22.77
2018-10-09T05:01:26.930Z,28.90
2018-10-09T05:03:56.140Z,28.10
2018-10-09T05:06:25.229Z,28.43
2018-10-09T05:08:54.359Z,28.60
2018-10-09T05:11:23.459Z,26.70
2018-10-09T05:13:52.630Z,26.07
2018-10-09T05:16:21.735Z,28.43
2018-10-09T05:18:50.866Z,32.63
2018-10-09T05:21:20.027Z,33.27
2018-10-09T05:23:49.182Z,27.53
2018-10-09T05:26:18.327Z,27.60
2018-10-09T05:28:47.457Z,35.20
2018-10-09T05:31:16.601Z,24.20
2018-10-09T05:33:45.702Z,40.47
2018-10-09T05:36:15.095Z,30.93
2018-10-09T05:38:44.628Z,29.40
2018-10-09T05:41:13.761Z,26.00
2018-10-09T05:43:42.886Z,29.80
2018-10-09T05:46:11.984Z,32.13
2018-10-09T05:48:41.186Z,32.60
2018-10-09T05:51:10.318Z,25.97
2018-10-09T05:53:39.451Z,24.10
2018-10-09T05:56:08.725Z,20.07
2018-10-09T05:58:37.872Z,26.67
2018-10-09T06:01:07.628Z,24.27
2018-10-09T06:03:36.735Z,27.13
2018-10-09T06:06:05.934Z,21.90
2018-10-09T06:08:35.536Z,23.00
2018-10-09T06:11:04.774Z,18.93
2018-10-09T06:13:34.031Z,20.23
2018-10-09T06:16:03.161Z,27.07
2018-10-09T06:18:32.316Z,24.57
2018-10-09T06:21:01.484Z,18.73
2018-10-09T06:23:30.629Z,20.30
2018-10-09T06:25:59.796Z,21.23
2018-10-09T06:28:29.007Z,19.60
2018-10-09T06:30:58.087Z,18.57
2018-10-09T06:33:27.173Z,25.43
2018-10-09T06:35:56.506Z,20.23
2018-10-09T06:38:25.593Z,17.40
2018-10-09T06:40:54.712Z,20.50
2018-10-09T06:43:23.811Z,26.63
2018-10-09T06:45:52.931Z,17.73
2018-10-09T06:48:22.029Z,19.27
2018-10-09T06:50:51.147Z,23.37
2018-10-09T06:53:20.259Z,19.30
2018-10-09T06:55:49.289Z,14.53
2018-10-09T06:58:18.422Z,17.23
2018-10-09T07:00:47.558Z,24.90
2018-10-09T07:03:16.775Z,18.50
2018-10-09T07:05:45.853Z,13.50
2018-10-09T07:08:14.957Z,16.70
2018-10-09T07:10:44.054Z,13.33
2018-10-09T07:13:13.282Z,17.87
2018-10-09T07:15:42.372Z,23.40
2018-10-09T07:18:11.470Z,15.27
2018-10-09T07:20:40.590Z,13.80
2018-10-09T07:23:09.690Z,16.63
2018-10-09T07:25:38.795Z,15.93
2018-10-09T07:28:07.951Z,17.63
2018-10-09T07:30:37.048Z,14.33
2018-10-09T07:33:06.245Z,16.63
2018-10-09T07:35:35.368Z,15.27
2018-10-09T07:38:04.461Z,21.07
2018-10-09T07:40:33.562Z,20.80
2018-10-09T07:43:02.661Z,17.50
2018-10-09T07:45:31.783Z,17.50
2018-10-09T07:48:00.862Z,19.50
2018-10-09T07:50:29.990Z,15.47
2018-10-09T07:52:59.188Z,14.93
2018-10-09T07:55:28.228Z,18.90
2018-10-09T07:57:57.351Z,14.13
2018-10-09T08:00:26.442Z,14.60
2018-10-09T08:02:55.543Z,16.23
2018-10-09T08:05:24.669Z,12.63
2018-10-09T08:07:53.823Z,15.43
2018-10-09T08:10:23.008Z,19.80
2018-10-09T08:12:52.117Z,18.10
2018-10-09T08:15:21.211Z,13.97
2018-10-09T08:17:50.321Z,13.47
2018-10-09T08:20:19.407Z,23.23
2018-10-09T08:22:48.541Z,12.90
2018-10-09T08:25:17.674Z,15.17
2018-10-09T08:27:46.798Z,13.40
2018-10-09T08:30:15.919Z,16.73
2018-10-09T08:32:45.035Z,14.30
2018-10-09T08:35:14.137Z,13.70
2018-10-09T08:37:43.284Z,16.10
2018-10-09T08:40:12.494Z,17.03
2018-10-09T08:42:41.525Z,21.20
2018-10-09T08:45:17.191Z,15.53
2018-10-09T08:47:46.298Z,13.23
2018-10-09T08:50:15.449Z,16.03
2018-10-09T08:52:44.540Z,13.77
2018-10-09T08:55:13.673Z,18.30
2018-10-09T08:57:42.820Z,15.93
2018-10-09T09:00:11.940Z,15.53
2018-10-09T09:02:41.055Z,15.43
2018-10-09T09:05:10.226Z,13.07
2018-10-09T09:07:39.638Z,11.13
2018-10-09T09:10:08.833Z,10.47
2018-10-09T09:12:37.954Z,13.87
2018-10-09T09:15:07.446Z,9.20
2018-10-09T09:17:36.555Z,10.00
2018-10-09T09:20:05.699Z,8.27
2018-10-09T09:22:34.862Z,7.53
2018-10-09T09:25:03.927Z,7.33
2018-10-09T09:27:33.126Z,6.80
2018-10-09T09:30:02.096Z,8.20
2018-10-09T09:32:31.199Z,8.90
2018-10-09T09:35:00.318Z,13.00
2018-10-09T09:37:29.411Z,13.73
2018-10-09T09:39:58.497Z,17.93
2018-10-09T09:42:27.596Z,11.13
2018-10-09T09:44:56.696Z,17.50
2018-10-09T09:47:25.762Z,11.63
2018-10-09T09:49:54.908Z,19.43
2018-10-09T09:52:23.985Z,12.87
2018-10-09T09:54:53.105Z,11.23
2018-10-09T09:57:22.254Z,10.80
2018-10-09T09:59:51.699Z,16.00
2018-10-09T10:02:20.808Z,14.33
2018-10-09T10:04:49.912Z,14.33
2018-10-09T10:07:19.007Z,12.93
2018-10-09T10:09:48.141Z,17.10
2018-10-09T10:12:17.262Z,11.63
2018-10-09T10:14:46.377Z,13.03
2018-10-09T10:17:15.498Z,12.67
2018-10-09T10:19:44.657Z,11.63
2018-10-09T10:22:13.768Z,11.63
2018-10-09T10:24:42.879Z,14.40
2018-10-09T10:27:11.995Z,10.87
2018-10-09T10:29:41.104Z,14.30
2018-10-09T10:32:10.246Z,13.13
2018-10-09T10:34:39.477Z,12.57
2018-10-09T10:37:08.734Z,16.63
2018-10-09T10:39:37.881Z,15.00
2018-10-09T10:42:07.064Z,17.47
2018-10-09T10:44:36.173Z,20.20
2018-10-09T10:47:05.297Z,16.00
2018-10-09T10:49:34.466Z,16.70
2018-10-09T10:52:03.570Z,19.93
2018-10-09T10:54:32.736Z,16.97
2018-10-09T10:57:01.831Z,18.83
2018-10-09T10:59:31.024Z,16.73
2018-10-09T11:02:00.127Z,18.90
2018-10-09T11:04:29.240Z,21.47
2018-10-09T11:06:58.361Z,16.17
2018-10-09T11:09:27.485Z,18.30
2018-10-09T11:11:56.574Z,18.37
2018-10-09T11:14:25.690Z,19.57
2018-10-09T11:16:54.816Z,18.67
2018-10-09T11:19:23.990Z,22.97
2018-10-09T11:21:53.088Z,18.97
2018-10-09T11:24:22.244Z,15.77
2018-10-09T11:26:51.367Z,31.20
2018-10-09T11:29:20.517Z,16.40
2018-10-09T11:31:49.666Z,20.30
2018-10-09T11:34:18.741Z,21.37
2018-10-09T11:36:47.887Z,17.93
2018-10-09T11:39:17.078Z,17.73
2018-10-09T11:41:46.208Z,18.13
2018-10-09T11:44:15.366Z,15.53
2018-10-09T11:46:44.518Z,20.93
2018-10-09T11:49:13.599Z,17.63
2018-10-09T11:51:42.687Z,19.93
2018-10-09T11:54:11.761Z,15.63
2018-10-09T11:56:40.924Z,19.60
2018-10-09T11:59:10.135Z,14.50
2018-10-09T12:01:39.198Z,19.70
2018-10-09T12:04:08.479Z,19.33
2018-10-09T12:06:37.593Z,25.47
2018-10-09T12:09:10.509Z,18.23
2018-10-09T12:11:40.204Z,18.67
2018-10-09T12:14:09.473Z,18.87
2018-10-09T12:16:38.604Z,16.53
2018-10-09T12:19:07.701Z,17.23
2018-10-09T12:21:37.250Z,17.97
2018-10-09T12:24:06.362Z,20.47
2018-10-09T12:26:35.469Z,24.83
2018-10-09T12:29:04.644Z,20.30
2018-10-09T12:31:33.726Z,16.80
2018-10-09T12:34:02.833Z,17.93
2018-10-09T12:36:31.983Z,24.77
2018-10-09T12:39:01.048Z,17.30
2018-10-09T12:41:30.187Z,19.23
2018-10-09T12:43:59.406Z,22.50
2018-10-09T12:46:28.379Z,22.93
2018-10-09T12:48:57.509Z,19.30
2018-10-09T12:51:26.630Z,20.17
2018-10-09T12:53:55.821Z,20.10
2018-10-09T12:56:24.938Z,20.83
2018-10-09T12:58:54.147Z,21.10
2018-10-09T13:01:23.268Z,21.07
2018-10-09T13:03:52.410Z,25.07
2018-10-09T13:06:21.560Z,21.73
2018-10-09T13:08:50.681Z,23.10
2018-10-09T13:11:19.808Z,21.03
2018-10-09T13:13:48.969Z,26.97
2018-10-09T13:16:18.229Z,27.80
2018-10-09T13:18:47.342Z,21.10
2018-10-09T13:21:16.688Z,22.97
2018-10-09T13:23:45.675Z,22.27
2018-10-09T13:26:14.812Z,22.27
2018-10-09T13:28:43.914Z,20.03
2018-10-09T13:31:13.067Z,21.00
2018-10-09T13:33:42.198Z,23.20
2018-10-09T13:36:11.340Z,17.20
2018-10-09T13:38:40.474Z,22.20
2018-10-09T13:41:09.623Z,25.20
2018-10-09T13:43:38.689Z,26.03
2018-10-09T13:46:08.818Z,20.70
2018-10-09T13:48:37.942Z,18.33
2018-10-09T13:51:07.364Z,21.90
2018-10-09T13:53:36.719Z,18.77
2018-10-09T13:56:05.886Z,19.90
2018-10-09T13:58:35.001Z,19.83
2018-10-09T14:01:04.133Z,17.73
2018-10-09T14:03:33.240Z,16.60
2018-10-09T14:06:02.364Z,19.43
2018-10-09T14:08:31.441Z,23.73
2018-10-09T14:11:00.566Z,18.03
2018-10-09T14:13:29.674Z,17.50
2018-10-09T14:15:58.794Z,18.50
2018-10-09T14:18:27.905Z,19.90
2018-10-09T14:20:57.072Z,21.83
2018-10-09T14:23:26.290Z,16.40
2018-10-09T14:25:55.434Z,17.13
2018-10-09T14:28:25.440Z,22.50
2018-10-09T14:30:54.557Z,19.33
2018-10-09T14:33:23.707Z,14.47
2018-10-09T14:35:52.805Z,16.40
2018-10-09T14:38:21.887Z,19.13
2018-10-09T14:40:51.028Z,20.30
2018-10-09T14:43:20.164Z,17.37
2018-10-09T14:45:49.277Z,23.67
2018-10-09T14:48:18.385Z,16.60
2018-10-09T14:50:47.476Z,22.23
2018-10-09T14:53:16.607Z,17.67
2018-10-09T14:55:45.705Z,20.53
2018-10-09T14:58:14.805Z,18.93
2018-10-09T15:00:43.962Z,17.50
2018-10-09T15:03:13.117Z,19.20
2018-10-09T15:05:42.204Z,16.87
2018-10-09T15:08:11.357Z,17.70
2018-10-09T15:10:40.454Z,14.80
2018-10-09T15:13:09.611Z,18.10
2018-10-09T15:15:38.723Z,19.13
2018-10-09T15:18:07.895Z,17.33
2018-10-09T15:20:37.061Z,16.70
2018-10-09T15:23:06.303Z,14.17
2018-10-09T15:25:35.447Z,16.70
2018-10-09T15:28:04.579Z,17.70
2018-10-09T15:30:33.688Z,17.77
2018-10-09T15:33:02.859Z,13.80
2018-10-09T15:35:32.139Z,15.13
2018-10-09T15:38:01.168Z,16.30
2018-10-09T15:40:30.275Z,16.47
2018-10-09T15:42:59.370Z,15.93
2018-10-09T15:45:28.496Z,20.10
2018-10-09T15:47:57.621Z,18.33
2018-10-09T15:50:26.785Z,15.83
2018-10-09T15:52:55.901Z,17.43
2018-10-09T15:55:25.236Z,15.43
2018-10-09T15:57:54.359Z,15.03
2018-10-09T16:00:23.515Z,13.83
2018-10-09T16:02:52.682Z,17.37
2018-10-09T16:05:21.793Z,24.50
2018-10-09T16:07:50.905Z,16.80
2018-10-09T16:10:20.053Z,13.40
2018-10-09T16:12:49.213Z,19.77
2018-10-09T16:15:18.353Z,16.50
2018-10-09T16:17:47.514Z,19.33
2018-10-09T16:20:16.620Z,20.60
2018-10-09T16:22:45.748Z,19.47
2018-10-09T16:25:14.876Z,13.70
2018-10-09T16:27:44.014Z,18.20
2018-10-09T16:30:13.201Z,18.20
2018-10-09T16:32:42.435Z,19.67
2018-10-09T16:35:11.462Z,16.30
2018-10-09T16:37:40.592Z,18.10
2018-10-09T16:40:09.797Z,24.67
2018-10-09T16:42:38.964Z,17.47
2018-10-09T16:45:08.116Z,16.07
2018-10-09T16:47:37.199Z,18.57
2018-10-09T16:50:06.357Z,20.60
2018-10-09T16:52:35.508Z,18.87
2018-10-09T16:55:04.865Z,21.23
2018-10-09T16:57:33.995Z,24.53
2018-10-09T17:00:03.141Z,19.30
2018-10-09T17:02:32.252Z,23.07
2018-10-09T17:05:01.433Z,20.17
2018-10-09T17:07:30.552Z,19.37
2018-10-09T17:09:59.649Z,16.17
2018-10-09T17:12:28.869Z,21.67
2018-10-09T17:14:59.002Z,19.57
2018-10-09T17:17:28.366Z,22.63
2018-10-09T17:19:57.620Z,16.90
2018-10-09T17:22:26.984Z,17.87
2018-10-09T17:24:56.107Z,20.90
2018-10-09T17:27:25.259Z,18.00
2018-10-09T17:29:54.371Z,17.73
2018-10-09T17:32:23.568Z,17.63
2018-10-09T17:34:52.641Z,21.03
2018-10-09T17:37:21.805Z,18.53
2018-10-09T17:39:50.930Z,18.60
2018-10-09T17:42:20.083Z,19.37
2018-10-09T17:44:49.241Z,16.87
2018-10-09T17:47:18.474Z,20.20
2018-10-09T17:49:47.528Z,24.80
2018-10-09T17:52:16.629Z,20.27
2018-10-09T17:54:45.737Z,18.47
2018-10-09T17:57:14.880Z,19.33
2018-10-09T17:59:44.046Z,23.40
2018-10-09T18:02:13.154Z,18.90
2018-10-09T18:04:42.321Z,26.87
2018-10-09T18:07:11.456Z,17.90
2018-10-09T18:09:40.615Z,17.80
2018-10-09T18:12:09.714Z,20.90
2018-10-09T18:14:38.919Z,24.60
2018-10-09T18:17:08.074Z,24.37
2018-10-09T18:19:37.250Z,25.50
2018-10-09T18:22:06.398Z,22.83
2018-10-09T18:24:35.548Z,22.97
2018-10-09T18:27:04.694Z,24.37
2018-10-09T18:29:33.837Z,21.33
2018-10-09T18:32:02.954Z,23.07
2018-10-09T18:34:32.108Z,22.03
2018-10-09T18:37:01.247Z,24.60
2018-10-09T18:39:30.384Z,25.10
2018-10-09T18:41:59.567Z,21.57
2018-10-09T18:44:28.631Z,24.27
2018-10-09T18:46:57.818Z,24.10
2018-10-09T18:49:26.936Z,22.40
2018-10-09T18:51:56.076Z,26.17
2018-10-09T18:54:25.183Z,23.83
2018-10-09T18:56:54.292Z,24.43
2018-10-09T18:59:23.425Z,21.83
2018-10-09T19:01:52.529Z,25.70
2018-10-09T19:04:21.655Z,26.30
2018-10-09T19:06:50.783Z,29.60
2018-10-09T19:09:19.956Z,29.43
2018-10-09T19:11:49.078Z,31.80
2018-10-09T19:14:18.243Z,32.87
2018-10-09T19:16:47.311Z,37.43
2018-10-09T19:19:16.389Z,41.03
2018-10-09T19:21:45.536Z,29.83
2018-10-09T19:24:14.642Z,35.90
2018-10-09T19:26:43.774Z,36.20
2018-10-09T19:29:12.898Z,31.80
2018-10-09T19:31:42.017Z,34.43
2018-10-09T19:34:11.164Z,28.33
2018-10-09T19:36:40.253Z,34.43
2018-10-09T19:39:11.246Z,29.90
2018-10-09T19:41:40.330Z,35.83
2018-10-09T19:44:09.474Z,31.83
2018-10-09T19:46:39.369Z,33.07
2018-10-09T19:49:08.483Z,33.80
2018-10-09T19:51:37.702Z,44.67
2018-10-09T19:54:06.848Z,32.80
2018-10-09T19:56:35.966Z,31.07
2018-10-09T19:59:05.124Z,36.93
2018-10-09T20:01:34.278Z,35.20
2018-10-09T20:04:03.427Z,34.80
2018-10-09T20:06:32.877Z,38.23
2018-10-09T20:09:02.008Z,36.60
2018-10-09T20:11:31.189Z,31.43
2018-10-09T20:14:00.265Z,36.83
2018-10-09T20:16:30.859Z,35.83
2018-10-09T20:18:59.937Z,35.33
2018-10-09T20:21:29.009Z,35.73
2018-10-09T20:23:58.142Z,32.83
2018-10-09T20:26:27.255Z,35.67
2018-10-09T20:28:56.391Z,33.40
2018-10-09T20:31:25.490Z,32.60
2018-10-09T20:33:54.606Z,41.60
2018-10-09T20:36:23.691Z,33.67
2018-10-09T20:38:52.830Z,34.20
2018-10-09T20:41:22.275Z,30.10
2018-10-09T20:43:51.622Z,34.77
2018-10-09T20:46:20.716Z,36.00
2018-10-09T20:48:49.829Z,43.67
2018-10-09T20:51:18.903Z,37.27
2018-10-09T20:53:48.035Z,41.30
2018-10-09T20:56:17.182Z,38.47
2018-10-09T20:58:46.342Z,40.93
2018-10-09T21:01:15.434Z,36.07
2018-10-09T21:03:44.542Z,42.37
2018-10-09T21:06:13.780Z,40.30
2018-10-09T21:08:43.090Z,43.80
2018-10-09T21:11:12.231Z,39.83
2018-10-09T21:13:41.358Z,40.13
2018-10-09T21:16:10.746Z,43.67
2018-10-09T21:18:39.825Z,41.43
2018-10-09T21:21:08.920Z,41.70
2018-10-09T21:23:38.006Z,42.53
2018-10-09T21:26:07.072Z,42.83
2018-10-09T21:28:36.194Z,42.13
2018-10-09T21:31:05.304Z,43.43
2018-10-09T21:33:34.462Z,42.03
2018-10-09T21:36:03.572Z,51.53
2018-10-09T21:38:32.691Z,34.07
2018-10-09T21:41:01.819Z,36.50
2018-10-09T21:43:30.938Z,38.80
2018-10-09T21:46:00.006Z,36.10
2018-10-09T21:48:29.107Z,36.93
2018-10-09T21:50:58.217Z,36.50
2018-10-09T21:53:27.277Z,38.50
2018-10-09T21:55:56.380Z,44.80
2018-10-09T21:58:25.545Z,40.10
2018-10-09T22:00:59.909Z,36.30
2018-10-09T22:03:29.011Z,41.50
2018-10-09T22:05:58.104Z,39.33
2018-10-09T22:08:27.842Z,40.37
2018-10-09T22:10:56.942Z,42.53
2018-10-09T22:13:26.037Z,40.57
2018-10-09T22:15:55.129Z,42.10
2018-10-09T22:18:24.268Z,39.87
2018-10-09T22:20:53.403Z,46.60
2018-10-09T22:23:22.488Z,45.93
2018-10-09T22:25:51.610Z,42.63
2018-10-09T22:28:20.790Z,47.20
2018-10-09T22:30:49.887Z,42.90
2018-10-09T22:33:19.402Z,46.77
2018-10-09T22:35:48.484Z,47.83
2018-10-09T22:38:17.604Z,43.73
2018-10-09T22:40:46.730Z,42.60
2018-10-09T22:43:15.881Z,37.83
2018-10-09T22:48:22.038Z,42.33
2018-10-09T22:50:51.107Z,42.40
2018-10-09T22:53:20.197Z,46.70
2018-10-09T22:55:49.320Z,47.90
2018-10-09T22:58:18.452Z,48.17
2018-10-09T23:00:47.559Z,48.43
2018-10-09T23:03:16.668Z,58.77
2018-10-09T23:05:45.788Z,49.80
2018-10-09T23:08:14.871Z,51.77
2018-10-09T23:10:43.989Z,48.93
2018-10-09T23:13:13.118Z,51.63
2018-10-09T23:15:42.269Z,46.47
2018-10-09T23:18:11.323Z,49.13
2018-10-09T23:20:40.479Z,55.03
2018-10-09T23:23:09.586Z,47.57
2018-10-09T23:25:38.733Z,47.27
2018-10-09T23:28:07.809Z,49.87
2018-10-09T23:30:37.056Z,45.83
2018-10-09T23:33:06.146Z,43.00
2018-10-09T23:35:35.268Z,49.23
2018-10-09T23:38:04.358Z,51.60
2018-10-09T23:40:33.430Z,44.90
2018-10-09T23:43:02.635Z,55.83
2018-10-09T23:45:31.725Z,45.73
2018-10-09T23:48:02.768Z,45.80
2018-10-09T23:50:31.865Z,44.80
2018-10-09T23:53:00.986Z,43.17
2018-10-09T23:55:30.103Z,50.70
2018-10-09T23:57:59.265Z,49.83
